createdAt,value
2018-04-18T00:02:22.061Z,8.90
2018-04-18T00:04:50.554Z,8.90
2018-04-18T00:07:19.733Z,9.02
2018-04-18T00:09:48.201Z,9.93
2018-04-18T00:12:16.636Z,9.70
2018-04-18T00:14:45.793Z,9.53
2018-04-18T00:17:14.196Z,9.27
2018-04-18T00:19:42.582Z,8.63
2018-04-18T00:22:11.041Z,9.10
2018-04-18T00:24:39.434Z,7.45
2018-04-18T00:27:07.840Z,8.43
2018-04-18T00:29:36.214Z,8.67
2018-04-18T00:32:04.598Z,8.87
2018-04-18T00:34:33.006Z,8.63
2018-04-18T00:37:02.187Z,8.30
2018-04-18T00:39:30.569Z,7.45
2018-04-18T00:41:59.001Z,9.23
2018-04-18T00:44:27.401Z,8.68
2018-04-18T00:46:55.786Z,8.18
2018-04-18T00:49:24.172Z,8.55
2018-04-18T00:51:52.569Z,8.77
2018-04-18T00:54:20.975Z,7.68
2018-04-18T00:56:50.153Z,6.82
2018-04-18T00:59:18.545Z,7.15
2018-04-18T01:01:46.958Z,7.00
2018-04-18T01:04:16.225Z,6.45
2018-04-18T01:06:44.633Z,7.27
2018-04-18T01:09:13.785Z,7.20
2018-04-18T01:11:42.181Z,7.05
2018-04-18T01:14:10.578Z,7.25
2018-04-18T01:16:39.058Z,6.50
2018-04-18T01:19:07.509Z,6.60
2018-04-18T01:21:35.901Z,6.20
2018-04-18T01:24:04.287Z,7.27
2018-04-18T01:26:33.607Z,6.47
2018-04-18T01:29:01.982Z,7.80
2018-04-18T01:31:30.381Z,5.95
2018-04-18T01:33:58.786Z,6.97
2018-04-18T01:36:27.190Z,7.60
2018-04-18T01:38:55.614Z,6.40
2018-04-18T01:41:23.989Z,6.80
2018-04-18T01:43:53.241Z,6.10
2018-04-18T01:46:22.471Z,6.57
2018-04-18T01:48:50.864Z,5.65
2018-04-18T01:51:19.262Z,6.45
2018-04-18T01:53:47.677Z,5.28
2018-04-18T01:56:16.091Z,5.93
2018-04-18T01:58:45.261Z,6.15
2018-04-18T02:01:13.662Z,4.28
2018-04-18T02:03:42.794Z,4.95
2018-04-18T02:06:11.189Z,4.62
2018-04-18T02:08:39.641Z,5.15
2018-04-18T02:11:08.789Z,5.18
2018-04-18T02:13:37.162Z,5.53
2018-04-18T02:16:05.528Z,5.00
2018-04-18T02:18:33.933Z,5.32
2018-04-18T02:21:02.334Z,5.00
2018-04-18T02:23:30.725Z,4.85
2018-04-18T02:25:59.126Z,5.32
2018-04-18T02:28:27.553Z,5.20
2018-04-18T02:30:55.922Z,5.05
2018-04-18T02:33:24.277Z,4.55
2018-04-18T02:35:53.474Z,4.70
2018-04-18T02:38:21.859Z,4.30
2018-04-18T02:40:50.221Z,4.93
2018-04-18T02:43:18.641Z,5.55
2018-04-18T02:45:47.779Z,4.22
2018-04-18T02:48:16.195Z,4.55
2018-04-18T02:50:44.593Z,4.75
2018-04-18T02:53:13.733Z,5.65
2018-04-18T02:55:42.113Z,4.80
2018-04-18T02:58:10.490Z,5.47
2018-04-18T03:00:38.871Z,5.45
2018-04-18T03:03:07.251Z,4.62
2018-04-18T03:05:35.710Z,5.03
2018-04-18T03:08:04.851Z,5.78
2018-04-18T03:10:33.225Z,4.10
2018-04-18T03:13:01.605Z,4.85
2018-04-18T03:15:29.994Z,4.53
2018-04-18T03:17:58.388Z,5.50
2018-04-18T03:20:26.743Z,4.50
2018-04-18T03:22:55.124Z,5.15
2018-04-18T03:25:24.278Z,4.90
2018-04-18T03:27:52.645Z,4.50
2018-04-18T03:30:21.033Z,4.80
2018-04-18T03:32:49.393Z,4.75
2018-04-18T03:35:17.763Z,4.35
2018-04-18T03:37:46.177Z,4.95
2018-04-18T03:40:14.534Z,4.78
2018-04-18T03:42:42.917Z,4.20
2018-04-18T03:45:11.288Z,5.50
2018-04-18T03:47:39.750Z,4.85
2018-04-18T03:50:08.383Z,4.68
2018-04-18T03:52:36.768Z,5.57
2018-04-18T03:55:05.143Z,5.45
2018-04-18T03:57:33.522Z,4.57
2018-04-18T04:00:01.886Z,4.70
2018-04-18T04:02:31.054Z,4.55
2018-04-18T04:04:59.497Z,4.80
2018-04-18T04:07:27.969Z,3.80
2018-04-18T04:09:56.368Z,4.55
2018-04-18T04:12:24.749Z,5.25
2018-04-18T04:14:53.137Z,5.55
2018-04-18T04:17:39.374Z,5.80
2018-04-18T04:20:25.433Z,5.12
2018-04-18T04:23:12.167Z,5.05
2018-04-18T04:25:40.533Z,5.43
2018-04-18T04:28:08.939Z,4.93
2018-04-18T04:30:37.466Z,5.40
2018-04-18T04:33:05.847Z,5.20
2018-04-18T04:35:34.298Z,5.68
2018-04-18T04:38:03.453Z,5.12
2018-04-18T04:40:31.860Z,5.10
2018-04-18T04:43:00.313Z,5.30
2018-04-18T04:45:28.701Z,6.97
2018-04-18T04:47:57.066Z,5.10
2018-04-18T04:50:25.426Z,6.10
2018-04-18T04:52:54.627Z,6.18
2018-04-18T04:55:23.778Z,6.30
2018-04-18T04:57:52.147Z,5.68
2018-04-18T05:00:20.525Z,5.85
2018-04-18T05:02:48.914Z,5.80
2018-04-18T05:05:17.286Z,6.68
2018-04-18T05:07:45.673Z,5.62
2018-04-18T05:10:14.043Z,5.93
2018-04-18T05:12:42.439Z,5.70
2018-04-18T05:15:10.822Z,7.43
2018-04-18T05:17:39.255Z,6.18
2018-04-18T05:20:07.626Z,6.37
2018-04-18T05:22:36.004Z,5.60
2018-04-18T05:25:04.391Z,5.45
2018-04-18T05:27:32.790Z,6.35
2018-04-18T05:30:01.949Z,6.60
2018-04-18T05:32:31.161Z,6.20
2018-04-18T05:34:59.564Z,7.22
2018-04-18T05:37:27.982Z,6.80
2018-04-18T05:39:56.506Z,6.28
2018-04-18T05:42:24.915Z,6.75
2018-04-18T05:44:53.324Z,6.68
2018-04-18T05:47:22.531Z,6.12
2018-04-18T05:49:50.965Z,7.75
2018-04-18T05:52:19.416Z,6.57
2018-04-18T05:54:47.831Z,7.85
2018-04-18T05:57:16.233Z,7.87
2018-04-18T05:59:44.641Z,6.90
2018-04-18T06:02:14.750Z,7.30
2018-04-18T06:04:43.139Z,7.40
2018-04-18T06:07:12.293Z,6.87
2018-04-18T06:09:40.710Z,7.17
2018-04-18T06:12:09.169Z,7.40
2018-04-18T06:14:37.620Z,7.77
2018-04-18T06:17:06.029Z,7.73
2018-04-18T06:19:34.430Z,8.03
2018-04-18T06:22:02.819Z,6.40
2018-04-18T06:24:31.225Z,6.33
2018-04-18T06:26:59.637Z,6.70
2018-04-18T06:29:28.009Z,7.20
2018-04-18T06:31:57.176Z,6.50
2018-04-18T06:34:25.589Z,5.67
2018-04-18T06:36:54.774Z,6.73
2018-04-18T06:39:23.197Z,5.87
2018-04-18T06:41:51.593Z,6.07
2018-04-18T06:44:19.989Z,6.17
2018-04-18T06:46:48.371Z,6.60
2018-04-18T06:49:16.757Z,7.20
2018-04-18T06:51:45.170Z,7.37
2018-04-18T06:54:13.559Z,6.40
2018-04-18T06:56:42.769Z,7.63
2018-04-18T06:59:11.934Z,6.57
2018-04-18T07:01:40.317Z,6.40
2018-04-18T07:04:09.477Z,6.77
2018-04-18T07:06:37.858Z,6.43
2018-04-18T07:09:06.973Z,6.77
2018-04-18T07:11:35.369Z,6.83
2018-04-18T07:14:03.769Z,6.80
2018-04-18T07:16:32.159Z,6.60
2018-04-18T07:19:00.586Z,6.87
2018-04-18T07:21:29.742Z,6.17
2018-04-18T07:23:58.176Z,6.83
2018-04-18T07:26:26.560Z,7.03
2018-04-18T07:28:54.949Z,7.07
2018-04-18T07:31:23.337Z,7.90
2018-04-18T07:33:51.795Z,6.57
2018-04-18T07:36:20.967Z,6.87
2018-04-18T07:38:49.353Z,7.20
2018-04-18T07:41:17.773Z,7.00
2018-04-18T07:43:46.946Z,6.57
2018-04-18T07:46:15.372Z,6.40
2018-04-18T07:48:43.759Z,5.93
2018-04-18T07:51:12.157Z,6.90
2018-04-18T07:53:40.549Z,5.73
2018-04-18T07:56:09.737Z,6.90
2018-04-18T07:58:38.121Z,5.87
2018-04-18T08:01:06.510Z,6.40
2018-04-18T08:03:34.946Z,6.87
2018-04-18T08:06:04.182Z,7.93
2018-04-18T08:08:32.665Z,7.00
2018-04-18T08:11:01.034Z,6.80
2018-04-18T08:13:29.409Z,6.90
2018-04-18T08:15:58.599Z,7.00
2018-04-18T08:18:27.762Z,7.10
2018-04-18T08:20:56.153Z,6.20
2018-04-18T08:23:24.530Z,5.70
2018-04-18T08:25:52.935Z,6.20
2018-04-18T08:28:21.342Z,6.93
2018-04-18T08:30:50.488Z,7.37
2018-04-18T08:33:18.887Z,6.20
2018-04-18T08:35:47.307Z,7.63
2018-04-18T08:38:15.718Z,6.90
2018-04-18T08:40:44.102Z,6.53
2018-04-18T08:43:12.478Z,6.80
2018-04-18T08:45:40.859Z,6.10
2018-04-18T08:48:09.268Z,6.50
2018-04-18T08:50:37.705Z,6.63
2018-04-18T08:53:06.838Z,7.13
2018-04-18T08:55:35.306Z,6.53
2018-04-18T08:58:03.802Z,6.30
2018-04-18T09:00:32.204Z,7.17
2018-04-18T09:03:00.584Z,6.63
2018-04-18T09:05:29.038Z,7.07
2018-04-18T09:07:57.438Z,7.17
2018-04-18T09:10:25.872Z,7.17
2018-04-18T09:12:54.282Z,6.40
2018-04-18T09:15:23.707Z,7.27
2018-04-18T09:17:52.134Z,6.03
2018-04-18T09:20:20.677Z,7.63
2018-04-18T09:22:49.074Z,7.40
2018-04-18T09:25:17.481Z,7.63
2018-04-18T09:27:45.877Z,6.93
2018-04-18T09:30:14.285Z,6.80
2018-04-18T09:32:43.459Z,7.30
2018-04-18T09:35:11.872Z,7.60
2018-04-18T09:37:41.115Z,8.20
2018-04-18T09:40:09.497Z,7.30
2018-04-18T09:42:37.915Z,8.03
2018-04-18T09:45:06.384Z,8.67
2018-04-18T09:47:34.734Z,7.70
2018-04-18T09:50:03.120Z,8.50
2018-04-18T09:52:31.573Z,7.30
2018-04-18T09:55:00.722Z,7.33
2018-04-18T09:57:29.129Z,7.70
2018-04-18T09:59:57.533Z,7.80
2018-04-18T10:02:29.394Z,9.10
2018-04-18T10:05:03.074Z,8.70
2018-04-18T10:07:31.515Z,8.27
2018-04-18T10:09:59.905Z,11.83
2018-04-18T10:12:28.366Z,7.90
2018-04-18T10:14:57.593Z,9.00
2018-04-18T10:17:25.977Z,8.40
2018-04-18T10:19:54.377Z,8.43
2018-04-18T10:22:22.762Z,7.67
2018-04-18T10:24:51.188Z,6.57
2018-04-18T10:27:20.353Z,7.20
2018-04-18T10:29:48.773Z,7.63
2018-04-18T10:32:17.161Z,6.57
2018-04-18T10:34:46.542Z,6.47
2018-04-18T10:37:15.687Z,7.40
2018-04-18T10:39:44.095Z,6.73
2018-04-18T10:42:12.533Z,5.77
2018-04-18T10:44:40.913Z,5.83
2018-04-18T10:47:09.297Z,5.27
2018-04-18T10:49:37.769Z,4.47
2018-04-18T10:52:06.277Z,5.80
2018-04-18T10:54:35.481Z,6.07
2018-04-18T10:57:03.862Z,5.10
2018-04-18T10:59:33.018Z,4.30
2018-04-18T11:02:01.420Z,5.23
2018-04-18T11:04:29.820Z,4.17
2018-04-18T11:06:59.013Z,5.10
2018-04-18T11:09:27.416Z,4.23
2018-04-18T11:11:56.600Z,4.20
2018-04-18T11:14:24.999Z,4.80
2018-04-18T11:16:54.147Z,5.13
2018-04-18T11:19:22.550Z,5.00
2018-04-18T11:21:51.044Z,5.40
2018-04-18T11:24:19.498Z,5.03
2018-04-18T11:26:47.915Z,5.80
2018-04-18T11:29:16.316Z,5.07
2018-04-18T11:31:45.482Z,4.73
2018-04-18T11:34:13.948Z,4.40
2018-04-18T11:36:42.356Z,5.63
2018-04-18T11:39:10.777Z,4.10
2018-04-18T11:41:39.925Z,4.33
2018-04-18T11:44:08.389Z,5.07
2018-04-18T11:46:36.781Z,3.90
2018-04-18T11:49:05.199Z,3.53
2018-04-18T11:51:33.591Z,4.40
2018-04-18T11:54:02.003Z,5.03
2018-04-18T11:56:31.169Z,5.27
2018-04-18T11:58:59.626Z,4.70
2018-04-18T12:01:28.038Z,5.37
2018-04-18T12:03:56.416Z,4.67
2018-04-18T12:06:24.817Z,3.60
2018-04-18T12:08:53.210Z,4.07
2018-04-18T12:11:21.681Z,4.70
2018-04-18T12:13:50.085Z,4.20
2018-04-18T12:16:19.242Z,3.73
2018-04-18T12:18:47.659Z,3.97
2018-04-18T12:21:16.055Z,3.90
2018-04-18T12:23:45.236Z,4.10
2018-04-18T12:26:13.622Z,5.20
2018-04-18T12:28:42.059Z,5.90
2018-04-18T12:31:10.459Z,5.17
2018-04-18T12:33:38.893Z,4.87
2018-04-18T12:36:08.098Z,4.40
2018-04-18T12:38:37.281Z,4.20
2018-04-18T12:41:05.706Z,4.13
2018-04-18T12:43:34.094Z,4.10
2018-04-18T12:46:02.527Z,4.73
2018-04-18T12:48:30.922Z,5.20
2018-04-18T12:51:00.239Z,4.80
2018-04-18T12:53:29.475Z,5.17
2018-04-18T12:55:57.936Z,5.33
2018-04-18T12:58:26.361Z,4.77
2018-04-18T13:00:54.755Z,4.80
2018-04-18T13:03:23.165Z,4.50
2018-04-18T13:05:52.337Z,5.10
2018-04-18T13:08:20.729Z,4.60
2018-04-18T13:10:49.114Z,4.30
2018-04-18T13:13:17.528Z,3.97
2018-04-18T13:15:46.055Z,4.63
2018-04-18T13:18:14.446Z,4.03
2018-04-18T13:20:42.922Z,5.57
2018-04-18T13:23:11.316Z,3.83
2018-04-18T13:25:40.485Z,4.40
2018-04-18T13:28:08.872Z,3.40
2018-04-18T13:30:37.289Z,3.83
2018-04-18T13:33:05.681Z,4.10
2018-04-18T13:35:34.062Z,3.60
2018-04-18T13:38:02.483Z,3.30
2018-04-18T13:40:31.649Z,3.30
2018-04-18T13:43:00.765Z,3.87
2018-04-18T13:45:29.189Z,4.23
2018-04-18T13:47:57.665Z,3.73
2018-04-18T13:50:26.015Z,3.57
2018-04-18T13:52:54.431Z,3.83
2018-04-18T13:55:22.921Z,3.40
2018-04-18T13:57:51.324Z,3.53
2018-04-18T14:00:19.710Z,3.80
2018-04-18T14:02:48.101Z,3.47
2018-04-18T14:05:16.592Z,3.67
2018-04-18T14:07:45.045Z,2.50
2018-04-18T14:10:13.430Z,3.43
2018-04-18T14:12:41.851Z,3.70
2018-04-18T14:15:11.136Z,3.47
2018-04-18T14:17:39.522Z,2.97
2018-04-18T14:20:08.198Z,2.90
2018-04-18T14:22:36.626Z,3.30
2018-04-18T14:25:05.038Z,2.83
2018-04-18T14:27:34.185Z,3.17
2018-04-18T14:30:02.570Z,2.50
2018-04-18T14:32:30.954Z,5.00
2018-04-18T14:34:59.469Z,2.93
2018-04-18T14:37:27.881Z,3.07
2018-04-18T14:39:56.289Z,2.40
2018-04-18T14:42:24.699Z,2.60
2018-04-18T14:44:53.104Z,2.93
2018-04-18T14:47:21.507Z,2.63
2018-04-18T14:49:50.722Z,2.83
2018-04-18T14:52:19.174Z,2.30
2018-04-18T14:54:47.573Z,2.13
2018-04-18T14:57:16.761Z,2.50
2018-04-18T14:59:45.150Z,2.70
2018-04-18T15:02:14.330Z,2.90
2018-04-18T15:04:42.740Z,2.90
2018-04-18T15:07:11.929Z,2.60
2018-04-18T15:09:40.354Z,2.33
2018-04-18T15:12:08.765Z,1.87
2018-04-18T15:14:37.180Z,2.50
2018-04-18T15:17:05.591Z,2.60
2018-04-18T15:19:33.989Z,2.57
2018-04-18T15:22:02.401Z,2.40
2018-04-18T15:24:31.597Z,2.60
2018-04-18T15:26:59.991Z,2.70
2018-04-18T15:29:28.371Z,2.73
2018-04-18T15:31:56.751Z,2.30
2018-04-18T15:34:25.225Z,2.63
2018-04-18T15:36:53.679Z,2.27
2018-04-18T15:39:22.878Z,3.17
2018-04-18T15:41:52.030Z,3.10
2018-04-18T15:44:20.406Z,3.10
2018-04-18T15:46:48.785Z,2.93
2018-04-18T15:49:17.174Z,3.10
2018-04-18T15:51:45.572Z,2.63
2018-04-18T15:54:14.086Z,2.73
2018-04-18T15:56:42.553Z,2.70
2018-04-18T15:59:10.953Z,2.73
2018-04-18T16:01:40.125Z,2.30
2018-04-18T16:04:08.556Z,2.87
2018-04-18T16:06:36.977Z,3.10
2018-04-18T16:09:05.346Z,4.70
2018-04-18T16:11:33.787Z,3.70
2018-04-18T16:14:02.209Z,15.97
2018-04-18T16:16:30.601Z,4.77
2018-04-18T16:18:59.009Z,3.10
2018-04-18T16:21:27.422Z,2.80
2018-04-18T16:23:55.816Z,3.30
2018-04-18T16:26:25.059Z,3.33
2018-04-18T16:28:53.470Z,3.10
2018-04-18T16:31:21.859Z,3.00
2018-04-18T16:33:50.249Z,2.70
2018-04-18T16:36:18.658Z,2.60
2018-04-18T16:38:47.854Z,2.70
2018-04-18T16:41:17.017Z,3.57
2018-04-18T16:43:45.414Z,2.90
2018-04-18T16:46:13.951Z,3.50
2018-04-18T16:48:42.445Z,3.53
2018-04-18T16:51:10.846Z,4.10
2018-04-18T16:53:39.223Z,3.60
2018-04-18T16:56:07.622Z,4.80
2018-04-18T16:58:36.058Z,3.30
2018-04-18T17:01:04.664Z,4.00
2018-04-18T17:03:33.061Z,3.27
2018-04-18T17:06:01.453Z,3.50
2018-04-18T17:08:30.597Z,4.20
2018-04-18T17:10:59.742Z,3.83
2018-04-18T17:13:28.175Z,3.20
2018-04-18T17:15:56.549Z,4.70
2018-04-18T17:18:24.976Z,3.50
2018-04-18T17:20:53.467Z,3.90
2018-04-18T17:23:21.930Z,4.50
2018-04-18T17:25:51.150Z,4.40
2018-04-18T17:28:19.540Z,3.43
2018-04-18T17:30:47.982Z,3.13
2018-04-18T17:33:16.399Z,3.43
2018-04-18T17:35:44.843Z,4.17
2018-04-18T17:38:13.219Z,4.63
2018-04-18T17:40:41.628Z,3.30
2018-04-18T17:43:10.786Z,3.97
2018-04-18T17:45:39.195Z,3.70
2018-04-18T17:48:07.590Z,3.60
2018-04-18T17:50:36.773Z,3.17
2018-04-18T17:53:05.146Z,2.90
2018-04-18T17:55:33.521Z,3.60
2018-04-18T17:58:01.936Z,3.63
2018-04-18T18:00:30.357Z,3.37
2018-04-18T18:02:58.757Z,3.37
2018-04-18T18:05:27.143Z,3.07
2018-04-18T18:07:55.558Z,3.00
2018-04-18T18:10:23.921Z,3.77
2018-04-18T18:12:52.319Z,3.47
2018-04-18T18:15:20.802Z,3.77
2018-04-18T18:17:49.223Z,3.80
2018-04-18T18:20:18.392Z,4.40
2018-04-18T18:22:46.774Z,5.53
2018-04-18T18:25:15.162Z,3.87
2018-04-18T18:27:43.552Z,4.83
2018-04-18T18:30:11.954Z,4.93
2018-04-18T18:32:41.154Z,3.90
2018-04-18T18:35:10.298Z,3.67
2018-04-18T18:37:38.693Z,4.40
2018-04-18T18:40:07.093Z,4.80
2018-04-18T18:42:35.490Z,4.53
2018-04-18T18:45:03.990Z,4.00
2018-04-18T18:47:33.158Z,3.90
2018-04-18T18:50:01.542Z,4.10
2018-04-18T18:52:30.092Z,4.17
2018-04-18T18:54:59.492Z,4.07
2018-04-18T18:57:27.919Z,4.10
2018-04-18T18:59:56.336Z,4.10
2018-04-18T19:02:24.702Z,4.10
2018-04-18T19:04:53.093Z,4.53
2018-04-18T19:07:21.484Z,4.30
2018-04-18T19:09:50.656Z,4.70
2018-04-18T19:12:19.207Z,4.93
2018-04-18T19:14:47.613Z,5.00
2018-04-18T19:17:16.000Z,4.37
2018-04-18T19:19:44.428Z,4.93
2018-04-18T19:22:13.585Z,4.80
2018-04-18T19:24:41.974Z,4.33
2018-04-18T19:27:10.395Z,4.90
2018-04-18T19:29:39.570Z,4.27
2018-04-18T19:32:07.958Z,4.50
2018-04-18T19:34:36.394Z,4.90
2018-04-18T19:37:04.812Z,5.13
2018-04-18T19:39:33.216Z,4.87
2018-04-18T19:42:01.622Z,5.67
2018-04-18T19:44:30.787Z,5.33
2018-04-18T19:46:59.203Z,4.87
2018-04-18T19:49:29.370Z,4.97
2018-04-18T19:51:57.773Z,6.00
2018-04-18T19:54:26.236Z,6.20
2018-04-18T19:56:54.623Z,5.43
2018-04-18T19:59:23.040Z,4.27
2018-04-18T20:01:51.439Z,5.10
2018-04-18T20:04:20.610Z,4.70
2018-04-18T20:06:48.991Z,4.30
2018-04-18T20:09:17.389Z,5.27
2018-04-18T20:11:45.777Z,3.90
2018-04-18T20:14:14.934Z,4.33
2018-04-18T20:16:43.370Z,4.40
2018-04-18T20:19:11.732Z,5.30
2018-04-18T20:21:40.153Z,4.50
2018-04-18T20:24:08.565Z,4.97
2018-04-18T20:26:36.946Z,5.20
2018-04-18T20:29:05.393Z,5.10
2018-04-18T20:31:34.598Z,5.20
2018-04-18T20:34:03.746Z,5.00
2018-04-18T20:36:36.976Z,5.23
2018-04-18T20:39:05.363Z,4.90
2018-04-18T20:41:34.535Z,5.53
2018-04-18T20:44:02.947Z,4.93
2018-04-18T20:46:32.089Z,5.30
2018-04-18T20:49:00.487Z,4.57
2018-04-18T20:51:28.908Z,5.97
2018-04-18T20:53:57.294Z,5.23
2018-04-18T20:56:26.474Z,5.10
2018-04-18T20:58:54.862Z,5.53
2018-04-18T21:01:23.272Z,5.80
2018-04-18T21:03:52.431Z,5.60
2018-04-18T21:06:20.862Z,6.40
2018-04-18T21:08:50.086Z,6.30
2018-04-18T21:11:18.487Z,5.50
2018-04-18T21:13:46.929Z,6.00
2018-04-18T21:16:15.270Z,5.10
2018-04-18T21:18:43.681Z,6.10
2018-04-18T21:21:12.067Z,6.07
2018-04-18T21:23:40.555Z,5.37
2018-04-18T21:26:09.850Z,5.77
2018-04-18T21:28:38.246Z,6.07
2018-04-18T21:31:07.450Z,7.63
2018-04-18T21:33:36.688Z,6.07
2018-04-18T21:36:05.127Z,6.10
2018-04-18T21:38:34.284Z,5.93
2018-04-18T21:41:02.681Z,6.30
2018-04-18T21:43:31.090Z,6.37
2018-04-18T21:45:59.498Z,5.90
2018-04-18T21:48:28.686Z,6.27
2018-04-18T21:50:57.881Z,5.90
2018-04-18T21:53:27.076Z,7.00
2018-04-18T21:55:55.458Z,6.30
2018-04-18T21:58:23.900Z,6.47
2018-04-18T22:00:52.312Z,5.83
2018-04-18T22:03:22.312Z,7.00
2018-04-18T22:05:50.718Z,6.33
2018-04-18T22:08:19.104Z,7.60
2018-04-18T22:10:47.498Z,6.90
2018-04-18T22:13:15.937Z,7.37
2018-04-18T22:15:44.334Z,7.97
2018-04-18T22:18:12.807Z,7.30
2018-04-18T22:20:41.197Z,7.43
2018-04-18T22:23:10.364Z,6.00
2018-04-18T22:25:38.770Z,7.10
2018-04-18T22:28:07.149Z,7.00
2018-04-18T22:30:35.533Z,6.23
2018-04-18T22:33:03.937Z,6.60
2018-04-18T22:35:32.426Z,7.07
2018-04-18T22:38:00.829Z,7.33
2018-04-18T22:40:29.237Z,6.63
2018-04-18T22:42:57.661Z,6.43
2018-04-18T22:45:26.084Z,7.70
2018-04-18T22:47:54.683Z,5.87
2018-04-18T22:50:23.837Z,5.93
2018-04-18T22:52:52.234Z,6.37
2018-04-18T22:55:21.385Z,5.70
2018-04-18T22:57:49.757Z,6.80
2018-04-18T23:00:23.570Z,6.23
2018-04-18T23:02:52.065Z,5.50
2018-04-18T23:05:20.505Z,5.20
2018-04-18T23:07:48.901Z,5.37
2018-04-18T23:10:17.293Z,5.40
2018-04-18T23:12:46.458Z,5.80
2018-04-18T23:15:14.907Z,5.57
2018-04-18T23:17:43.306Z,5.60
2018-04-18T23:20:12.628Z,5.30
2018-04-18T23:22:41.020Z,4.97
2018-04-18T23:25:09.401Z,5.13
2018-04-18T23:27:38.565Z,4.77
2018-04-18T23:30:06.966Z,5.53
2018-04-18T23:32:35.377Z,5.50
2018-04-18T23:35:03.797Z,5.00
2018-04-18T23:37:32.935Z,4.40
2018-04-18T23:40:01.354Z,5.93
2018-04-18T23:42:29.730Z,5.17
2018-04-18T23:44:58.934Z,5.60
2018-04-18T23:47:27.315Z,5.70
2018-04-18T23:49:55.697Z,5.80
2018-04-18T23:52:24.085Z,5.10
2018-04-18T23:54:52.490Z,5.83
2018-04-18T23:57:21.641Z,4.97
2018-04-18T23:59:50.763Z,6.37
